Time;durP1;ratioP1;P1;durP2;ratioP2;P2;SDS_P1;SDS_P2;PMS_P1;PMS_P2;Temp;Humidity;BMP_temperature;BMP_pressure;BME280_temperature;BME280_humidity;BME280_pressure;Samples;Min_cycle;Max_cycle;Signal;HPM_P1;HPM_P2
2023/08/26 00:00:31;;;;;;;25.48;22.48;;;17.00;99.90;;;;;;7372317;19;20010;-65
2023/08/26 00:03:17;;;;;;;27.00;22.13;;;16.90;99.90;;;;;;7374492;19;20018;-64
2023/08/26 00:05:43;;;;;;;27.45;22.65;;;16.80;99.90;;;;;;7375686;19;20018;-65
2023/08/26 00:08:09;;;;;;;27.55;24.45;;;16.80;99.90;;;;;;7377303;19;20137;-65
2023/08/26 00:10:36;;;;;;;32.20;25.55;;;16.70;99.90;;;;;;7372826;19;20093;-65
2023/08/26 00:13:02;;;;;;;33.30;25.48;;;16.60;99.90;;;;;;7370900;19;20018;-65
2023/08/26 00:15:28;;;;;;;26.85;23.95;;;16.60;99.90;;;;;;7373041;19;20052;-64
2023/08/26 00:17:55;;;;;;;32.42;24.30;;;16.50;99.90;;;;;;7378350;19;20589;-66
2023/08/26 00:20:21;;;;;;;33.08;25.25;;;16.50;99.90;;;;;;7376114;19;20019;-66
2023/08/26 00:22:47;;;;;;;25.90;23.00;;;16.40;99.90;;;;;;7371625;19;20060;-66
2023/08/26 00:25:14;;;;;;;26.40;22.27;;;16.40;99.90;;;;;;7373353;19;20014;-66
2023/08/26 00:27:40;;;;;;;33.22;24.77;;;16.40;99.90;;;;;;7372514;19;20019;-64
2023/08/26 00:30:07;;;;;;;30.77;23.10;;;16.30;99.90;;;;;;7373827;19;20018;-64
2023/08/26 00:32:34;;;;;;;25.95;21.85;;;16.30;99.90;;;;;;7370135;19;20015;-65
2023/08/26 00:35:00;;;;;;;24.63;21.80;;;16.30;99.90;;;;;;7375565;19;20014;-65
2023/08/26 00:37:26;;;;;;;24.95;20.25;;;16.30;99.90;;;;;;7373193;19;20453;-65
2023/08/26 00:39:52;;;;;;;27.10;21.88;;;16.30;99.90;;;;;;7374417;19;20014;-65
2023/08/26 00:42:18;;;;;;;24.83;20.80;;;16.30;99.90;;;;;;7371079;19;20019;-65
2023/08/26 00:44:45;;;;;;;23.63;20.10;;;16.30;99.90;;;;;;7375095;19;20055;-64
2023/08/26 00:47:11;;;;;;;21.42;19.13;;;16.30;99.90;;;;;;7372694;19;20022;-66
2023/08/26 00:49:38;;;;;;;21.63;18.45;;;16.30;99.90;;;;;;7373241;19;20014;-65
2023/08/26 00:52:05;;;;;;;22.70;18.73;;;16.30;99.90;;;;;;7377170;19;20040;-66
2023/08/26 00:54:35;;;;;;;20.40;18.30;;;16.30;99.90;;;;;;7371499;19;20511;-66
2023/08/26 00:57:06;;;;;;;22.73;19.27;;;16.30;99.90;;;;;;7369887;19;20014;-66
2023/08/26 00:59:32;;;;;;;22.50;18.50;;;16.30;99.90;;;;;;7371960;19;20014;-66
2023/08/26 01:02:00;;;;;;;23.83;18.23;;;16.30;99.90;;;;;;7369370;19;20034;-66
2023/08/26 01:04:28;;;;;;;23.38;17.50;;;16.20;99.90;;;;;;7367882;19;20370;-66
2023/08/26 01:06:55;;;;;;;22.45;18.30;;;16.20;99.90;;;;;;7370096;19;20775;-66
2023/08/26 01:09:21;;;;;;;21.80;17.52;;;16.20;99.90;;;;;;7373019;19;20363;-68
2023/08/26 01:12:05;;;;;;;19.02;17.05;;;16.20;99.90;;;;;;7370145;19;20113;-67
2023/08/26 01:14:38;;;;;;;23.45;17.05;;;16.20;99.90;;;;;;7369423;19;20374;-67
2023/08/26 01:17:05;;;;;;;18.02;16.13;;;16.20;99.90;;;;;;7371824;19;20025;-65
2023/08/26 01:19:37;;;;;;;21.83;16.33;;;16.20;99.90;;;;;;7371612;19;20021;-66
2023/08/26 01:22:08;;;;;;;17.52;15.45;;;16.20;99.90;;;;;;7367859;19;20442;-65
2023/08/26 01:24:36;;;;;;;18.63;15.40;;;16.10;99.90;;;;;;7370203;19;20553;-65
2023/08/26 01:27:03;;;;;;;19.30;16.15;;;16.10;99.90;;;;;;7368054;19;20041;-66
2023/08/26 01:29:29;;;;;;;20.23;15.63;;;16.10;99.90;;;;;;7375353;19;20018;-64
2023/08/26 01:32:02;;;;;;;16.52;14.82;;;16.10;99.90;;;;;;7372002;19;20022;-64
2023/08/26 01:34:32;;;;;;;18.25;14.77;;;16.10;99.90;;;;;;7372702;19;20053;-64
2023/08/26 01:37:01;;;;;;;16.17;14.50;;;16.10;99.90;;;;;;7364954;19;20049;-64
2023/08/26 01:39:28;;;;;;;18.98;13.85;;;16.10;99.90;;;;;;7373728;19;20033;-66
2023/08/26 01:41:57;;;;;;;15.98;13.60;;;16.10;99.90;;;;;;7371840;19;20028;-65
2023/08/26 01:44:24;;;;;;;15.93;13.52;;;16.10;99.90;;;;;;7369927;19;20588;-66
2023/08/26 01:46:52;;;;;;;15.43;13.65;;;16.00;99.90;;;;;;7372013;19;20605;-64
2023/08/26 01:49:19;;;;;;;15.07;13.50;;;16.00;99.90;;;;;;7370351;19;20047;-66
2023/08/26 01:51:45;;;;;;;15.27;13.27;;;16.00;99.90;;;;;;7370265;19;20014;-66
2023/08/26 01:54:12;;;;;;;13.77;12.15;;;15.90;99.90;;;;;;7371879;19;20011;-65
2023/08/26 01:56:38;;;;;;;16.08;13.35;;;15.90;99.90;;;;;;7364734;19;20038;-65
2023/08/26 01:59:04;;;;;;;15.30;12.80;;;15.90;99.90;;;;;;7372922;19;20018;-66
2023/08/26 02:01:33;;;;;;;17.33;12.68;;;15.80;99.90;;;;;;7369462;19;20019;-65
2023/08/26 02:04:00;;;;;;;15.88;11.60;;;15.80;99.90;;;;;;7374991;19;20511;-65
2023/08/26 02:06:27;;;;;;;14.30;12.15;;;15.80;99.90;;;;;;7367493;19;20011;-66
2023/08/26 02:08:54;;;;;;;13.35;11.98;;;15.80;99.90;;;;;;7372210;19;20498;-66
2023/08/26 02:11:21;;;;;;;13.05;11.35;;;15.70;99.90;;;;;;7366357;19;20387;-65
2023/08/26 02:13:47;;;;;;;14.63;12.27;;;15.80;99.90;;;;;;7371504;19;20018;-65
2023/08/26 02:16:13;;;;;;;14.82;12.05;;;15.80;99.90;;;;;;7370146;19;20014;-66
2023/08/26 02:18:40;;;;;;;18.17;12.35;;;15.80;99.90;;;;;;7368014;19;20359;-65
2023/08/26 02:21:06;;;;;;;16.48;11.57;;;15.80;99.90;;;;;;7369544;19;20035;-65
2023/08/26 02:23:32;;;;;;;16.05;11.90;;;15.80;99.90;;;;;;7367001;19;20030;-64
2023/08/26 02:25:58;;;;;;;12.70;11.02;;;15.70;99.90;;;;;;7373586;19;20018;-64
2023/08/26 02:28:45;;;;;;;13.32;11.90;;;15.80;99.90;;;;;;7369412;19;20014;-64
2023/08/26 02:31:11;;;;;;;13.10;11.70;;;15.70;99.90;;;;;;7370181;19;20035;-65
2023/08/26 02:33:38;;;;;;;18.27;12.52;;;15.70;99.90;;;;;;7368150;19;20498;-64
2023/08/26 02:36:05;;;;;;;13.73;12.32;;;15.70;99.90;;;;;;7369308;19;20419;-64
2023/08/26 02:38:34;;;;;;;12.20;10.50;;;15.60;99.90;;;;;;7367557;19;20026;-64
2023/08/26 02:41:20;;;;;;;13.80;12.30;;;15.60;99.90;;;;;;7367482;19;20022;-66
2023/08/26 02:43:46;;;;;;;14.65;11.55;;;15.50;99.90;;;;;;7373338;19;20481;-65
2023/08/26 02:46:12;;;;;;;12.35;10.95;;;15.50;99.90;;;;;;7372332;19;20022;-65
2023/08/26 02:48:39;;;;;;;18.33;11.93;;;15.50;99.90;;;;;;7367093;19;20375;-65
2023/08/26 02:51:05;;;;;;;15.48;12.15;;;15.40;99.90;;;;;;7367876;19;20442;-65
2023/08/26 02:53:31;;;;;;;15.50;11.73;;;15.40;99.90;;;;;;7366748;19;20018;-64
2023/08/26 02:55:57;;;;;;;14.38;12.63;;;15.40;99.90;;;;;;7372296;19;20006;-64
2023/08/26 02:58:24;;;;;;;16.50;11.10;;;15.40;99.90;;;;;;7365395;19;20470;-65
2023/08/26 03:00:50;;;;;;;15.50;11.48;;;15.30;99.90;;;;;;7362170;19;20399;-66
2023/08/26 03:03:17;;;;;;;15.68;11.60;;;15.20;99.90;;;;;;7366119;19;20086;-67
2023/08/26 03:05:43;;;;;;;15.95;12.05;;;15.20;99.90;;;;;;7369516;19;20441;-65
2023/08/26 03:08:09;;;;;;;12.85;11.18;;;15.10;99.90;;;;;;7369031;19;20042;-65
2023/08/26 03:10:37;;;;;;;17.08;12.25;;;15.10;99.90;;;;;;7363872;19;20019;-65
2023/08/26 03:13:03;;;;;;;14.55;11.57;;;15.00;99.90;;;;;;7370673;19;20473;-66
2023/08/26 03:15:30;;;;;;;13.40;10.80;;;14.90;99.90;;;;;;7369852;19;20045;-66
2023/08/26 03:17:57;;;;;;;16.65;12.48;;;14.90;99.90;;;;;;7370324;19;20015;-66
2023/08/26 03:20:24;;;;;;;14.25;11.57;;;14.80;99.90;;;;;;7373944;19;20573;-66
2023/08/26 03:22:50;;;;;;;13.32;11.88;;;14.80;99.90;;;;;;7378046;19;20532;-66
2023/08/26 03:25:17;;;;;;;12.35;10.90;;;14.70;99.90;;;;;;7377864;19;20039;-65
2023/08/26 03:27:43;;;;;;;17.77;11.88;;;14.70;99.90;;;;;;7376729;19;20054;-65
2023/08/26 03:30:30;;;;;;;12.30;11.07;;;14.70;99.90;;;;;;7374922;19;20025;-64
2023/08/26 03:32:57;;;;;;;12.82;10.55;;;14.60;99.90;;;;;;7376967;19;20014;-65
2023/08/26 03:35:23;;;;;;;12.70;11.07;;;14.60;99.90;;;;;;7372101;19;20031;-65
2023/08/26 03:37:50;;;;;;;13.57;11.00;;;14.50;99.90;;;;;;7374733;19;20021;-66
2023/08/26 03:40:16;;;;;;;12.68;11.30;;;14.50;99.90;;;;;;7376210;19;20023;-64
2023/08/26 03:42:42;;;;;;;15.98;13.38;;;14.40;99.90;;;;;;7372547;19;20720;-64
2023/08/26 03:45:10;;;;;;;16.38;12.85;;;14.40;99.90;;;;;;7375163;19;20018;-64
2023/08/26 03:47:36;;;;;;;15.18;12.30;;;14.40;99.90;;;;;;7375930;19;20367;-64
2023/08/26 03:50:02;;;;;;;14.88;12.05;;;14.30;99.90;;;;;;7375729;19;20025;-64
2023/08/26 03:52:28;;;;;;;19.80;12.52;;;14.30;99.90;;;;;;7372307;19;20093;-66
2023/08/26 03:54:58;;;;;;;14.60;12.02;;;14.30;99.90;;;;;;7373593;19;20014;-64
2023/08/26 03:57:24;;;;;;;13.52;12.13;;;14.30;99.90;;;;;;7376586;19;20019;-66
2023/08/26 03:59:50;;;;;;;16.63;11.63;;;14.20;99.90;;;;;;7373980;19;20021;-65
2023/08/26 04:02:16;;;;;;;12.63;11.32;;;14.30;99.90;;;;;;7376502;19;20017;-66
2023/08/26 04:04:43;;;;;;;12.82;11.35;;;14.30;99.90;;;;;;7371103;19;20017;-67
2023/08/26 04:07:10;;;;;;;15.40;13.75;;;14.30;99.90;;;;;;7374694;19;20014;-66
2023/08/26 04:09:37;;;;;;;20.63;14.75;;;14.30;99.90;;;;;;7369777;19;20583;-66
2023/08/26 04:12:03;;;;;;;14.63;13.05;;;14.30;99.90;;;;;;7376436;19;20519;-66
2023/08/26 04:14:30;;;;;;;15.57;13.93;;;14.30;99.90;;;;;;7372422;19;20022;-67
2023/08/26 04:17:16;;;;;;;14.57;13.25;;;14.40;99.90;;;;;;7375234;19;20100;-66
2023/08/26 04:19:42;;;;;;;13.30;12.02;;;14.40;99.90;;;;;;7371244;19;20680;-66
2023/08/26 04:22:09;;;;;;;17.38;13.05;;;14.40;99.90;;;;;;7373666;19;20538;-65
2023/08/26 04:24:36;;;;;;;15.88;13.10;;;14.40;99.90;;;;;;7372593;19;20017;-66
2023/08/26 04:27:02;;;;;;;16.40;14.07;;;14.40;99.90;;;;;;7371073;19;20020;-66
2023/08/26 04:29:28;;;;;;;15.32;13.73;;;14.40;99.90;;;;;;7374488;19;20147;-67
2023/08/26 04:31:54;;;;;;;17.02;13.82;;;14.40;99.90;;;;;;7375920;19;20052;-66
2023/08/26 04:34:20;;;;;;;15.88;12.65;;;14.40;99.90;;;;;;7374645;19;20123;-69
2023/08/26 04:36:48;;;;;;;15.73;11.48;;;14.30;99.90;;;;;;7375328;19;20450;-66
2023/08/26 04:39:14;;;;;;;15.07;12.02;;;14.30;99.90;;;;;;7373699;19;20971;-66
2023/08/26 04:41:40;;;;;;;13.00;11.27;;;14.20;99.90;;;;;;7370552;19;20513;-66
2023/08/26 04:44:08;;;;;;;13.10;11.60;;;14.20;99.90;;;;;;7375776;19;20055;-66
2023/08/26 04:46:37;;;;;;;19.75;13.63;;;14.30;99.90;;;;;;7372452;19;20011;-66
2023/08/26 04:49:04;;;;;;;20.30;14.23;;;14.30;99.90;;;;;;7377229;19;20019;-66
2023/08/26 04:51:31;;;;;;;15.52;13.90;;;14.30;99.90;;;;;;7373144;19;20508;-66
2023/08/26 04:53:58;;;;;;;17.15;14.73;;;14.40;99.90;;;;;;7375962;19;20015;-66
2023/08/26 04:56:24;;;;;;;15.93;14.30;;;14.40;99.90;;;;;;7372910;19;20014;-66
2023/08/26 04:58:52;;;;;;;16.77;15.05;;;14.50;99.90;;;;;;7375781;19;20375;-66
2023/08/26 05:01:18;;;;;;;17.48;14.45;;;14.60;99.90;;;;;;7370322;19;20501;-66
2023/08/26 05:03:44;;;;;;;19.02;14.65;;;14.60;99.90;;;;;;7366844;19;20040;-66
2023/08/26 05:06:11;;;;;;;18.60;15.70;;;14.60;99.90;;;;;;7375711;19;20022;-66
2023/08/26 05:08:37;;;;;;;18.08;14.07;;;14.70;99.90;;;;;;7375140;19;20025;-66
2023/08/26 05:11:05;;;;;;;16.13;13.23;;;14.70;99.90;;;;;;7369761;19;20433;-66
2023/08/26 05:13:31;;;;;;;19.73;16.63;;;14.70;99.90;;;;;;7373767;19;20025;-66
2023/08/26 05:15:59;;;;;;;18.95;14.70;;;14.80;99.90;;;;;;7376022;19;20114;-66
2023/08/26 05:18:25;;;;;;;18.60;15.73;;;14.80;99.90;;;;;;7373657;19;20043;-66
2023/08/26 05:20:51;;;;;;;15.05;13.55;;;14.80;99.90;;;;;;7371025;19;20105;-66
2023/08/26 05:23:18;;;;;;;16.73;14.63;;;14.80;99.90;;;;;;7375694;19;20037;-64
2023/08/26 05:25:45;;;;;;;17.67;15.43;;;14.90;99.90;;;;;;7370313;19;20054;-65
2023/08/26 05:28:13;;;;;;;17.48;14.90;;;14.90;99.90;;;;;;7374797;19;20024;-66
2023/08/26 05:30:39;;;;;;;19.80;16.08;;;14.90;99.90;;;;;;7369840;19;20470;-67
2023/08/26 05:33:05;;;;;;;18.02;15.43;;;15.00;99.90;;;;;;7372822;19;20018;-66
2023/08/26 05:35:32;;;;;;;20.50;16.95;;;15.10;99.90;;;;;;7372122;19;20524;-66
2023/08/26 05:38:01;;;;;;;18.77;15.85;;;15.10;99.90;;;;;;7371235;19;20021;-66
2023/08/26 05:40:29;;;;;;;19.27;17.05;;;15.20;99.90;;;;;;7373355;19;20014;-66
2023/08/26 05:42:56;;;;;;;18.45;16.15;;;15.10;99.90;;;;;;7369369;19;20573;-65
2023/08/26 05:45:25;;;;;;;21.48;16.00;;;15.20;99.90;;;;;;7366600;19;20014;-65
2023/08/26 05:47:54;;;;;;;20.33;15.85;;;15.20;99.90;;;;;;7367349;19;20018;-65
2023/08/26 05:50:21;;;;;;;22.05;16.55;;;15.30;99.90;;;;;;7370333;19;20018;-64
2023/08/26 05:52:47;;;;;;;20.42;17.25;;;15.40;99.90;;;;;;7371625;19;20399;-65
2023/08/26 05:55:14;;;;;;;17.15;15.45;;;15.40;99.90;;;;;;7374358;19;20019;-65
2023/08/26 05:57:41;;;;;;;19.92;16.75;;;15.40;99.90;;;;;;7370255;19;20731;-65
2023/08/26 06:00:29;;;;;;;19.58;15.88;;;15.40;99.90;;;;;;7369127;19;20014;-64
2023/08/26 06:02:56;;;;;;;18.20;14.45;;;15.40;99.90;;;;;;7367998;19;20016;-65
2023/08/26 06:05:23;;;;;;;21.73;15.73;;;15.40;99.90;;;;;;7368396;19;20114;-65
2023/08/26 06:07:51;;;;;;;23.10;16.38;;;15.40;99.90;;;;;;7369526;19;20506;-65
2023/08/26 06:10:18;;;;;;;17.30;15.32;;;15.50;99.90;;;;;;7368228;19;20071;-65
2023/08/26 06:12:45;;;;;;;19.02;15.88;;;15.50;99.90;;;;;;7368535;19;20018;-65
2023/08/26 06:15:14;;;;;;;19.08;16.42;;;15.50;99.90;;;;;;7370729;19;20049;-64
2023/08/26 06:17:41;;;;;;;18.20;15.65;;;15.60;99.90;;;;;;7370612;19;20044;-64
2023/08/26 06:20:09;;;;;;;16.38;14.65;;;15.60;99.90;;;;;;7371361;19;20023;-65
2023/08/26 06:22:36;;;;;;;21.33;16.33;;;15.60;99.90;;;;;;7368689;19;20478;-65
2023/08/26 06:25:02;;;;;;;19.10;15.63;;;15.70;99.90;;;;;;7371228;19;20022;-64
2023/08/26 06:27:28;;;;;;;17.05;15.20;;;15.70;99.90;;;;;;7366442;19;20020;-64
2023/08/26 06:29:58;;;;;;;19.17;15.10;;;15.70;99.90;;;;;;7370980;19;20026;-65
2023/08/26 06:32:25;;;;;;;17.83;15.18;;;15.80;99.90;;;;;;7367498;19;20047;-63
2023/08/26 06:34:53;;;;;;;16.17;13.48;;;15.90;99.90;;;;;;7371063;19;20604;-64
2023/08/26 06:37:19;;;;;;;18.80;15.45;;;16.10;99.90;;;;;;7369676;19;20015;-65
2023/08/26 06:39:47;;;;;;;20.75;16.63;;;16.20;99.90;;;;;;7368857;19;20014;-64
2023/08/26 06:42:13;;;;;;;23.13;17.80;;;16.30;99.90;;;;;;7368106;19;20035;-64
2023/08/26 06:44:54;;;;;;;22.95;17.42;;;16.40;99.90;;;;;;7370316;19;20482;-64
2023/08/26 06:47:40;;;;;;;21.48;19.00;;;16.50;99.90;;;;;;7367350;19;20082;-65
2023/08/26 06:50:08;;;;;;;21.38;18.67;;;16.60;99.90;;;;;;7373059;19;20031;-66
2023/08/26 06:52:55;;;;;;;22.08;17.75;;;16.60;99.90;;;;;;7373104;19;20018;-66
2023/08/26 06:55:21;;;;;;;21.25;19.05;;;16.60;99.90;;;;;;7376558;19;20014;-64
2023/08/26 06:57:47;;;;;;;25.00;18.60;;;16.60;99.90;;;;;;7376507;19;20021;-64
2023/08/26 07:00:15;;;;;;;21.25;18.58;;;16.70;99.90;;;;;;7377728;19;20031;-66
2023/08/26 07:02:41;;;;;;;22.48;17.90;;;16.70;99.90;;;;;;7381441;19;20018;-65
2023/08/26 07:05:08;;;;;;;20.42;17.92;;;17.00;99.90;;;;;;7375808;19;20023;-66
2023/08/26 07:07:36;;;;;;;19.27;17.27;;;17.00;99.90;;;;;;7379539;19;20360;-66
2023/08/26 07:10:03;;;;;;;19.05;16.67;;;17.00;99.90;;;;;;7380513;19;20029;-66
2023/08/26 07:12:30;;;;;;;20.02;17.30;;;16.80;99.90;;;;;;7376537;19;20030;-66
2023/08/26 07:14:57;;;;;;;19.63;17.08;;;16.60;99.90;;;;;;7375100;19;20014;-66
2023/08/26 07:17:23;;;;;;;20.60;17.30;;;16.60;99.90;;;;;;7375689;19;20021;-67
2023/08/26 07:19:50;;;;;;;20.88;17.10;;;16.60;99.90;;;;;;7376620;19;20346;-65
2023/08/26 07:22:16;;;;;;;21.75;18.15;;;16.60;99.90;;;;;;7378851;19;20048;-63
2023/08/26 07:24:42;;;;;;;23.90;18.08;;;16.60;99.90;;;;;;7376466;19;20015;-64
2023/08/26 07:27:09;;;;;;;19.75;17.45;;;16.60;99.90;;;;;;7374542;19;20478;-64
2023/08/26 07:29:36;;;;;;;19.95;17.95;;;16.70;99.90;;;;;;7369726;19;20533;-63
2023/08/26 07:32:03;;;;;;;20.23;18.30;;;16.80;99.90;;;;;;7376174;19;20490;-64
2023/08/26 07:34:30;;;;;;;20.58;18.08;;;16.70;99.90;;;;;;7371069;19;20467;-64
2023/08/26 07:36:58;;;;;;;19.80;17.65;;;16.70;99.90;;;;;;7375297;19;20078;-64
2023/08/26 07:39:24;;;;;;;20.60;18.45;;;16.70;99.90;;;;;;7375473;19;20014;-64
2023/08/26 07:41:51;;;;;;;22.92;20.45;;;16.90;99.90;;;;;;7376226;19;20022;-65
2023/08/26 07:44:18;;;;;;;21.13;18.95;;;17.00;99.90;;;;;;7375574;19;20498;-64
2023/08/26 07:46:44;;;;;;;21.92;19.35;;;17.00;99.90;;;;;;7374915;19;20024;-66
2023/08/26 07:49:10;;;;;;;21.17;19.27;;;17.00;99.90;;;;;;7375399;19;20021;-65
2023/08/26 07:51:36;;;;;;;21.60;19.45;;;17.10;99.90;;;;;;7374209;19;20014;-66
2023/08/26 07:54:03;;;;;;;23.10;19.77;;;17.20;99.90;;;;;;7374674;19;20006;-66
2023/08/26 07:56:29;;;;;;;21.40;19.15;;;17.20;99.90;;;;;;7373714;19;20018;-65
2023/08/26 07:58:56;;;;;;;19.98;18.00;;;17.30;99.90;;;;;;7377476;19;20011;-66
2023/08/26 08:01:22;;;;;;;20.80;18.60;;;17.50;99.90;;;;;;7375280;19;20040;-65
2023/08/26 08:03:48;;;;;;;21.08;18.88;;;17.70;99.90;;;;;;7371747;19;20045;-65
2023/08/26 08:06:15;;;;;;;16.63;14.93;;;18.10;99.90;;;;;;7376498;19;21269;-64
2023/08/26 08:08:41;;;;;;;17.63;15.82;;;18.60;99.90;;;;;;7373738;19;20051;-64
2023/08/26 08:11:07;;;;;;;15.70;14.20;;;19.00;99.90;;;;;;7371917;19;20575;-64
2023/08/26 08:13:34;;;;;;;15.63;14.07;;;19.50;99.90;;;;;;7375043;19;20380;-64
2023/08/26 08:16:00;;;;;;;14.40;12.07;;;20.00;99.90;;;;;;7374184;19;20031;-64
2023/08/26 08:18:26;;;;;;;16.70;12.05;;;20.60;99.90;;;;;;7376658;19;20018;-65
2023/08/26 08:20:52;;;;;;;13.23;11.93;;;20.90;99.90;;;;;;7376737;19;20022;-65
2023/08/26 08:23:19;;;;;;;14.32;11.98;;;20.80;99.90;;;;;;7375832;19;20533;-66
2023/08/26 08:25:45;;;;;;;12.38;11.18;;;20.40;99.90;;;;;;7377151;19;20022;-65
2023/08/26 08:28:11;;;;;;;14.02;11.18;;;20.30;99.90;;;;;;7370020;19;20518;-64
2023/08/26 08:30:38;;;;;;;14.00;11.05;;;20.40;99.90;;;;;;7370635;19;20032;-65
2023/08/26 08:33:04;;;;;;;14.95;10.82;;;20.30;99.90;;;;;;7374625;19;20021;-64
2023/08/26 08:35:31;;;;;;;14.20;10.98;;;20.10;99.90;;;;;;7375420;19;20007;-65
2023/08/26 08:37:57;;;;;;;13.00;10.98;;;20.10;99.90;;;;;;7372093;19;20019;-64
2023/08/26 08:40:23;;;;;;;11.70;10.57;;;20.40;99.90;;;;;;7375431;19;20621;-65
2023/08/26 08:42:54;;;;;;;13.13;10.43;;;20.50;99.90;;;;;;7375394;19;20018;-65
2023/08/26 08:45:21;;;;;;;13.68;10.30;;;20.90;99.90;;;;;;7372625;19;20398;-65
2023/08/26 08:47:50;;;;;;;11.57;10.48;;;21.00;99.90;;;;;;7374283;19;20117;-65
2023/08/26 08:50:16;;;;;;;13.88;10.60;;;20.60;99.90;;;;;;7368655;19;20018;-66
2023/08/26 08:52:44;;;;;;;13.50;10.38;;;20.20;99.90;;;;;;7373800;19;20023;-66
2023/08/26 08:55:30;;;;;;;14.45;12.05;;;19.90;99.90;;;;;;7369003;19;20038;-63
2023/08/26 08:58:16;;;;;;;26.77;23.95;;;19.60;99.90;;;;;;7373044;19;20034;-66
2023/08/26 09:00:43;;;;;;;16.83;13.95;;;19.80;99.90;;;;;;7371408;19;20018;-66
2023/08/26 09:03:10;;;;;;;17.08;13.82;;;20.30;99.90;;;;;;7370843;19;20527;-66
2023/08/26 09:05:36;;;;;;;13.20;11.82;;;21.10;99.90;;;;;;7375212;19;20038;-67
2023/08/26 09:08:04;;;;;;;15.85;12.70;;;21.60;99.90;;;;;;7371138;19;20517;-67
2023/08/26 09:10:31;;;;;;;25.42;22.88;;;22.10;99.90;;;;;;7371148;19;20011;-64
2023/08/26 09:12:59;;;;;;;26.92;23.48;;;21.90;99.90;;;;;;7368321;19;20022;-64
2023/08/26 09:15:26;;;;;;;12.88;11.55;;;21.80;99.90;;;;;;7370669;19;20026;-64
2023/08/26 09:17:58;;;;;;;12.90;8.52;;;21.80;99.90;;;;;;7369413;19;20502;-64
2023/08/26 09:20:24;;;;;;;14.18;7.95;;;22.10;99.90;;;;;;7368823;19;20525;-63
2023/08/26 09:23:03;;;;;;;10.13;7.55;;;22.50;99.90;;;;;;7367612;19;20018;-64
2023/08/26 09:25:32;;;;;;;11.48;7.03;;;22.20;99.90;;;;;;7370017;19;20022;-63
2023/08/26 09:27:58;;;;;;;10.52;7.70;;;22.60;99.90;;;;;;7368494;19;20526;-65
2023/08/26 09:30:25;;;;;;;9.38;6.68;;;22.90;99.90;;;;;;7370975;19;20025;-65
2023/08/26 09:32:55;;;;;;;12.77;9.60;;;23.30;99.90;;;;;;7372932;19;20028;-64
2023/08/26 09:35:21;;;;;;;9.07;6.85;;;23.40;99.90;;;;;;7373344;19;20482;-65
2023/08/26 09:37:56;;;;;;;7.38;6.22;;;23.20;99.90;;;;;;7371668;19;20014;-67
2023/08/26 09:41:00;;;;;;;14.13;11.70;;;23.50;99.90;;;;;;7402205;19;20375;-65
2023/08/26 09:43:30;;;;;;;13.32;8.15;;;23.70;99.90;;;;;;7407196;19;20014;-65
2023/08/26 09:45:56;;;;;;;10.07;7.65;;;24.10;99.90;;;;;;7403675;19;20506;-64
2023/08/26 09:48:24;;;;;;;16.33;11.98;;;24.50;99.90;;;;;;7405756;19;20018;-65
2023/08/26 09:50:50;;;;;;;12.02;6.50;;;24.70;99.90;;;;;;7400568;19;20107;-65
2023/08/26 09:53:30;;;;;;;9.98;6.25;;;24.80;99.90;;;;;;7404348;19;20101;-65
2023/08/26 09:55:58;;;;;;;8.77;4.53;;;24.80;99.90;;;;;;7402745;19;20036;-66
2023/08/26 09:58:25;;;;;;;12.20;6.25;;;24.60;99.90;;;;;;7398859;19;20764;-65
2023/08/26 10:00:54;;;;;;;12.43;6.97;;;24.60;99.90;;;;;;7402669;19;20042;-63
2023/08/26 10:03:24;;;;;;;14.60;10.75;;;25.30;99.90;;;;;;7406060;19;20511;-65
2023/08/26 10:05:53;;;;;;;6.63;2.97;;;26.00;99.90;;;;;;7402608;19;20585;-65
2023/08/26 10:08:26;;;;;;;12.38;5.72;;;26.40;99.90;;;;;;7403095;19;20479;-64
2023/08/26 10:10:56;;;;;;;9.60;5.40;;;26.40;99.90;;;;;;7400609;19;20030;-65
2023/08/26 10:13:27;;;;;;;7.40;3.25;;;25.10;95.30;;;;;;7406790;19;20096;-65
2023/08/26 10:15:56;;;;;;;7.75;3.00;;;24.40;96.60;;;;;;7399404;19;21132;-64
2023/08/26 10:18:50;;;;;;;6.20;2.38;;;23.60;95.80;;;;;;7399090;19;20493;-64
2023/08/26 10:21:17;;;;;;;13.20;2.97;;;23.40;96.60;;;;;;7404803;19;20018;-65
2023/08/26 10:23:43;;;;;;;7.18;2.50;;;23.60;97.90;;;;;;7398082;19;20018;-64
2023/08/26 10:26:11;;;;;;;7.95;3.33;;;23.70;98.50;;;;;;7402284;19;20081;-64
2023/08/26 10:28:38;;;;;;;5.47;3.45;;;24.20;97.70;;;;;;7402472;19;20010;-65
2023/08/26 10:31:08;;;;;;;5.68;2.33;;;24.80;97.30;;;;;;7401311;19;20018;-67
2023/08/26 10:34:02;;;;;;;8.83;2.37;;;25.30;94.20;;;;;;7402953;19;20028;-69
2023/08/26 10:36:29;;;;;;;9.25;5.72;;;25.30;92.80;;;;;;7406980;19;20038;-63
2023/08/26 10:38:57;;;;;;;6.70;1.60;;;24.60;93.80;;;;;;7400226;19;20073;-64
2023/08/26 10:42:12;;;;;;;9.10;6.05;;;24.50;95.40;;;;;;7399396;19;20010;-63
2023/08/26 10:44:42;;;;;;;9.00;4.18;;;25.00;93.20;;;;;;7401840;19;20493;-64
2023/08/26 10:47:12;;;;;;;10.30;7.95;;;25.20;93.60;;;;;;7392956;19;20025;-64
2023/08/26 10:50:37;;;;;;;6.38;3.63;;;25.70;96.00;;;;;;7385254;19;20402;-65
2023/08/26 10:53:21;;;;;;;8.98;3.72;;;26.80;91.60;;;;;;7370728;19;20041;-64
2023/08/26 10:55:54;;;;;;;4.68;2.53;;;26.00;83.40;;;;;;7368011;19;20022;-64
2023/08/26 10:58:21;;;;;;;6.20;1.40;;;25.00;87.60;;;;;;7376161;19;20018;-64
2023/08/26 11:00:52;;;;;;;3.45;1.73;;;25.00;86.50;;;;;;7363722;19;20110;-64
2023/08/26 11:03:38;;;;;;;3.75;1.50;;;24.50;88.60;;;;;;7370403;19;20022;-65
2023/08/26 11:06:08;;;;;;;5.20;1.40;;;24.50;91.60;;;;;;7368779;19;20025;-64
2023/08/26 11:08:40;;;;;;;6.80;2.58;;;24.60;91.40;;;;;;7371392;19;20474;-65
2023/08/26 11:11:12;;;;;;;7.22;2.60;;;25.20;90.60;;;;;;7366549;19;20011;-64
2023/08/26 11:13:41;;;;;;;4.32;1.90;;;25.60;87.50;;;;;;7371924;19;20031;-64
2023/08/26 11:16:08;;;;;;;7.65;1.70;;;25.80;88.80;;;;;;7369777;19;20517;-63
2023/08/26 11:18:34;;;;;;;4.65;1.30;;;25.70;90.20;;;;;;7368544;19;20070;-64
2023/08/26 11:21:05;;;;;;;5.90;2.05;;;25.10;89.20;;;;;;7371567;19;20026;-64
2023/08/26 11:23:54;;;;;;;5.03;1.35;;;24.50;89.30;;;;;;7368518;19;20026;-63
2023/08/26 11:26:21;;;;;;;3.03;1.02;;;23.90;90.70;;;;;;7374536;19;20014;-64
2023/08/26 11:28:48;;;;;;;4.10;1.60;;;24.30;90.50;;;;;;7372226;19;20019;-64
2023/08/26 11:31:15;;;;;;;2.20;0.80;;;24.40;90.30;;;;;;7369305;19;20018;-64
2023/08/26 11:33:42;;;;;;;4.00;1.05;;;23.80;90.30;;;;;;7372902;19;20402;-65
2023/08/26 11:36:08;;;;;;;8.90;4.80;;;24.00;90.90;;;;;;7372595;19;20031;-64
2023/08/26 11:38:36;;;;;;;4.70;3.35;;;23.90;91.10;;;;;;7368908;19;20026;-65
2023/08/26 11:41:03;;;;;;;12.10;10.68;;;23.50;91.50;;;;;;7366998;19;20022;-65
2023/08/26 11:43:30;;;;;;;8.13;4.53;;;23.30;92.40;;;;;;7367628;19;20014;-68
2023/08/26 11:45:57;;;;;;;3.88;2.42;;;23.80;92.60;;;;;;7359726;19;20010;-65
2023/08/26 11:48:25;;;;;;;6.47;3.90;;;23.60;93.00;;;;;;7374294;19;20022;-65
2023/08/26 11:50:59;;;;;;;5.75;3.25;;;23.40;93.40;;;;;;7368433;19;20121;-66
2023/08/26 11:53:26;;;;;;;6.20;3.65;;;23.40;93.40;;;;;;7372325;19;20023;-65
2023/08/26 11:55:54;;;;;;;3.67;1.50;;;23.10;92.70;;;;;;7368581;19;20026;-65
2023/08/26 11:58:20;;;;;;;8.52;5.53;;;23.00;92.30;;;;;;7372523;19;20014;-65
2023/08/26 12:00:48;;;;;;;4.80;3.33;;;23.50;92.30;;;;;;7364642;19;20014;-65
2023/08/26 12:03:14;;;;;;;5.82;3.83;;;24.20;90.40;;;;;;7365761;19;21242;-64
2023/08/26 12:05:42;;;;;;;6.30;5.22;;;23.80;90.50;;;;;;7368555;19;20340;-65
2023/08/26 12:08:19;;;;;;;5.63;2.78;;;23.80;91.10;;;;;;7371156;19;20056;-65
2023/08/26 12:10:47;;;;;;;5.72;4.25;;;23.70;91.70;;;;;;7367010;19;20026;-64
2023/08/26 12:13:13;;;;;;;9.60;8.43;;;23.50;91.20;;;;;;7368682;19;20374;-65
2023/08/26 12:15:41;;;;;;;5.40;3.58;;;22.90;91.70;;;;;;7371234;19;20029;-64
2023/08/26 12:18:27;;;;;;;6.38;2.53;;;22.60;92.60;;;;;;7373690;19;20018;-63
2023/08/26 12:20:54;;;;;;;5.00;1.95;;;22.20;95.10;;;;;;7364981;19;20014;-64
2023/08/26 12:23:21;;;;;;;6.13;3.95;;;22.80;95.40;;;;;;7369556;19;20755;-62
2023/08/26 12:25:47;;;;;;;27.13;24.27;;;23.70;94.10;;;;;;7368658;19;20022;-62
2023/08/26 12:28:21;;;;;;;17.02;15.23;;;23.70;94.20;;;;;;7363471;19;20111;-62
2023/08/26 12:30:48;;;;;;;6.35;4.30;;;23.20;93.60;;;;;;7366680;19;20025;-62
2023/08/26 12:33:16;;;;;;;4.82;3.13;;;23.20;94.00;;;;;;7371456;19;20017;-61
2023/08/26 12:36:02;;;;;;;8.63;4.10;;;23.20;94.00;;;;;;7370981;19;20173;-62
2023/08/26 12:38:29;;;;;;;5.88;3.60;;;23.40;93.30;;;;;;7370384;19;21200;-61